Time;durP1;ratioP1;P1;durP2;ratioP2;P2;SDS_P1;SDS_P2;PMS_P1;PMS_P2;Temp;Humidity;BMP_temperature;BMP_pressure;BME280_temperature;BME280_humidity;BME280_pressure;Samples;Min_cycle;Max_cycle;Signal;HPM_P1;HPM_P2
2022/09/28 00:01:49;;;;;;;5.63;4.80;;;;;;;;;;5033962;28;20197;-44
2022/09/28 00:04:15;;;;;;;4.93;4.53;;;;;;;;;;5032625;28;20247;-44
2022/09/28 00:06:41;;;;;;;5.57;5.07;;;;;;;;;;5034048;28;20211;-44
2022/09/28 00:09:08;;;;;;;5.87;4.47;;;;;;;;;;5033562;28;20235;-44
2022/09/28 00:11:35;;;;;;;4.60;4.20;;;;;;;;;;5032417;28;20668;-46
2022/09/28 00:14:02;;;;;;;4.93;4.40;;;;;;;;;;5032005;28;20200;-45
2022/09/28 00:16:30;;;;;;;4.73;4.33;;;;;;;;;;5032349;28;20276;-45
2022/09/28 00:18:56;;;;;;;4.63;4.23;;;;;;;;;;5032371;28;20209;-45
2022/09/28 00:21:23;;;;;;;4.97;4.57;;;;;;;;;;5033887;28;20197;-45
2022/09/28 00:26:37;;;;;;;4.40;4.00;;;;;;;;;;5033935;28;20196;-44
2022/09/28 00:29:03;;;;;;;7.20;4.30;;;;;;;;;;5033779;28;20228;-45
2022/09/28 00:31:31;;;;;;;5.77;5.27;;;;;;;;;;5033694;28;20233;-45
2022/09/28 00:33:59;;;;;;;6.43;5.60;;;;;;;;;;5033362;28;20197;-45
2022/09/28 00:36:26;;;;;;;5.87;5.23;;;;;;;;;;5033781;28;20201;-45
2022/09/28 00:38:52;;;;;;;6.77;6.13;;;;;;;;;;5033740;28;20217;-44
2022/09/28 00:41:18;;;;;;;7.83;6.17;;;;;;;;;;5033542;28;20197;-44
2022/09/28 00:43:46;;;;;;;6.40;5.80;;;;;;;;;;5033613;28;20652;-45
2022/09/28 00:46:15;;;;;;;6.43;5.47;;;;;;;;;;5033552;28;20252;-44
2022/09/28 00:48:45;;;;;;;6.50;5.90;;;;;;;;;;5033096;28;20243;-45
2022/09/28 00:51:12;;;;;;;7.07;6.47;;;;;;;;;;5033720;28;20193;-44
2022/09/28 00:53:39;;;;;;;7.47;6.73;;;;;;;;;;5033047;28;20613;-44
2022/09/28 00:56:08;;;;;;;8.70;7.80;;;;;;;;;;5033025;28;20207;-44
2022/09/28 00:58:35;;;;;;;8.17;7.33;;;;;;;;;;5033361;28;20735;-45
2022/09/28 01:01:03;;;;;;;8.20;7.43;;;;;;;;;;5032984;28;20243;-44
2022/09/28 01:03:29;;;;;;;11.40;8.73;;;;;;;;;;5032457;28;20663;-44
2022/09/28 01:05:57;;;;;;;10.43;9.43;;;;;;;;;;5033092;28;20197;-44
2022/09/28 01:08:24;;;;;;;9.70;8.67;;;;;;;;;;5031382;28;20240;-44
2022/09/28 01:10:50;;;;;;;10.10;9.20;;;;;;;;;;5032794;28;20244;-45
2022/09/28 01:13:17;;;;;;;10.60;9.60;;;;;;;;;;5031186;28;20197;-44
2022/09/28 01:15:47;;;;;;;11.10;9.07;;;;;;;;;;5030942;28;20304;-45
2022/09/28 01:18:19;;;;;;;10.60;9.47;;;;;;;;;;5032796;28;20200;-44
2022/09/28 01:20:54;;;;;;;12.10;10.47;;;;;;;;;;5030946;28;20204;-44
2022/09/28 01:23:38;;;;;;;12.13;10.63;;;;;;;;;;5032429;28;20205;-44
2022/09/28 01:26:20;;;;;;;13.83;10.83;;;;;;;;;;5032469;28;20244;-44
2022/09/28 01:28:47;;;;;;;13.63;12.20;;;;;;;;;;5030809;28;20220;-44
2022/09/28 01:31:14;;;;;;;17.30;13.07;;;;;;;;;;5032053;28;20324;-44
2022/09/28 01:33:42;;;;;;;15.33;13.27;;;;;;;;;;5030825;28;20244;-44
2022/09/28 01:36:10;;;;;;;15.30;12.27;;;;;;;;;;5032400;28;20193;-44
2022/09/28 01:38:42;;;;;;;14.07;12.43;;;;;;;;;;5032517;28;20211;-44
2022/09/28 01:41:08;;;;;;;14.47;11.80;;;;;;;;;;5029621;28;20200;-44
2022/09/28 01:43:37;;;;;;;13.43;11.30;;;;;;;;;;5032530;28;20207;-44
2022/09/28 01:46:06;;;;;;;16.43;12.50;;;;;;;;;;5032631;28;20570;-44
2022/09/28 01:48:34;;;;;;;14.97;12.90;;;;;;;;;;5032143;28;20771;-44
2022/09/28 01:51:03;;;;;;;14.97;12.37;;;;;;;;;;5032763;28;20251;-44
2022/09/28 01:53:31;;;;;;;16.60;12.77;;;;;;;;;;5031692;28;20220;-44
2022/09/28 01:56:00;;;;;;;15.10;12.67;;;;;;;;;;5032529;28;20209;-44
2022/09/28 01:58:29;;;;;;;13.83;12.23;;;;;;;;;;5032544;28;20216;-44
2022/09/28 02:01:00;;;;;;;16.87;13.13;;;;;;;;;;5032355;28;20248;-44
2022/09/28 02:03:31;;;;;;;14.53;11.70;;;;;;;;;;5032025;28;20649;-44
2022/09/28 02:05:59;;;;;;;15.23;11.80;;;;;;;;;;5032282;28;20201;-44
2022/09/28 02:08:28;;;;;;;16.80;12.97;;;;;;;;;;5032210;28;20783;-44
2022/09/28 02:11:04;;;;;;;14.80;13.00;;;;;;;;;;5032266;28;20197;-44
2022/09/28 02:13:32;;;;;;;16.57;13.50;;;;;;;;;;5032158;28;20218;-44
2022/09/28 02:16:03;;;;;;;15.53;12.63;;;;;;;;;;5031634;28;20208;-44
2022/09/28 02:18:29;;;;;;;14.17;12.10;;;;;;;;;;5031976;28;20662;-44
2022/09/28 02:20:57;;;;;;;14.33;11.43;;;;;;;;;;5032028;28;20201;-44
2022/09/28 02:23:24;;;;;;;15.03;11.83;;;;;;;;;;5032190;28;20267;-44
2022/09/28 02:25:51;;;;;;;13.47;11.53;;;;;;;;;;5031988;28;20862;-44
2022/09/28 02:28:18;;;;;;;15.37;11.97;;;;;;;;;;5031710;28;20231;-44
2022/09/28 02:30:44;;;;;;;12.70;10.67;;;;;;;;;;5031757;28;20571;-44
2022/09/28 02:33:12;;;;;;;11.63;9.80;;;;;;;;;;5031863;28;20197;-44
2022/09/28 02:35:40;;;;;;;11.00;9.80;;;;;;;;;;5032033;28;20201;-44
2022/09/28 02:38:06;;;;;;;10.57;9.47;;;;;;;;;;5031933;28;20220;-44
2022/09/28 02:40:34;;;;;;;8.80;7.90;;;;;;;;;;5032012;28;20205;-44
2022/09/28 02:43:03;;;;;;;12.27;9.43;;;;;;;;;;5031057;28;20225;-44
2022/09/28 02:45:36;;;;;;;9.43;8.43;;;;;;;;;;5031230;28;20228;-44
2022/09/28 02:48:07;;;;;;;10.70;8.40;;;;;;;;;;5031416;28;20220;-44
2022/09/28 02:50:39;;;;;;;10.47;8.37;;;;;;;;;;5031660;28;20552;-44
2022/09/28 02:53:10;;;;;;;9.17;8.27;;;;;;;;;;5031139;28;20224;-44
2022/09/28 02:55:43;;;;;;;8.33;7.43;;;;;;;;;;5031582;28;20303;-44
2022/09/28 02:58:19;;;;;;;7.17;6.47;;;;;;;;;;5031600;28;20197;-44
2022/09/28 03:00:49;;;;;;;8.00;6.83;;;;;;;;;;5031651;28;20200;-44
2022/09/28 03:03:18;;;;;;;6.20;5.60;;;;;;;;;;5030923;28;20263;-44
2022/09/28 03:05:50;;;;;;;5.90;5.00;;;;;;;;;;5031614;28;20193;-44
2022/09/28 03:08:20;;;;;;;6.00;5.37;;;;;;;;;;5031594;28;20281;-44
2022/09/28 03:10:48;;;;;;;4.73;4.30;;;;;;;;;;5031526;28;20652;-44
2022/09/28 03:13:15;;;;;;;4.37;4.03;;;;;;;;;;5031675;28;20204;-45
2022/09/28 03:15:41;;;;;;;5.37;3.80;;;;;;;;;;5031702;28;20324;-44
2022/09/28 03:18:07;;;;;;;3.90;3.60;;;;;;;;;;5031352;28;20196;-44
2022/09/28 03:20:34;;;;;;;4.33;3.80;;;;;;;;;;5031595;28;20256;-44
2022/09/28 03:23:01;;;;;;;4.30;3.90;;;;;;;;;;5031409;28;20204;-44
2022/09/28 03:25:27;;;;;;;3.77;3.47;;;;;;;;;;5031482;28;20244;-44
2022/09/28 03:27:53;;;;;;;3.20;2.90;;;;;;;;;;5032817;28;20217;-45
2022/09/28 03:30:21;;;;;;;4.07;3.33;;;;;;;;;;5035304;28;20232;-45
2022/09/28 03:32:47;;;;;;;3.73;3.30;;;;;;;;;;5035266;28;20200;-45
2022/09/28 03:35:13;;;;;;;3.63;3.33;;;;;;;;;;5035440;28;20224;-44
2022/09/28 03:37:39;;;;;;;3.60;3.30;;;;;;;;;;5035226;28;20192;-44
2022/09/28 03:40:07;;;;;;;3.50;3.20;;;;;;;;;;5034492;28;20798;-44
2022/09/28 03:42:35;;;;;;;3.50;3.20;;;;;;;;;;5035103;28;20344;-44
2022/09/28 03:45:01;;;;;;;3.83;3.00;;;;;;;;;;5035032;28;20228;-44
2022/09/28 03:47:27;;;;;;;3.10;2.80;;;;;;;;;;5034944;28;20235;-45
2022/09/28 03:49:53;;;;;;;3.13;2.87;;;;;;;;;;5035050;28;20204;-45
2022/09/28 03:52:19;;;;;;;5.63;3.23;;;;;;;;;;5035055;28;20201;-44
2022/09/28 03:54:45;;;;;;;4.57;3.60;;;;;;;;;;5032490;28;20664;-44
2022/09/28 03:57:12;;;;;;;3.50;3.20;;;;;;;;;;5031661;28;20238;-45
2022/09/28 03:59:38;;;;;;;4.47;3.57;;;;;;;;;;5034347;28;20224;-45
2022/09/28 04:02:04;;;;;;;4.30;3.90;;;;;;;;;;5034504;28;20204;-45
2022/09/28 04:04:30;;;;;;;3.53;3.23;;;;;;;;;;5033808;28;20209;-45
2022/09/28 04:06:56;;;;;;;3.57;3.27;;;;;;;;;;5034575;28;20259;-45
2022/09/28 04:09:22;;;;;;;4.63;3.00;;;;;;;;;;5033580;28;20303;-44
2022/09/28 04:11:48;;;;;;;3.83;3.50;;;;;;;;;;5034308;28;20663;-45
2022/09/28 04:14:16;;;;;;;3.80;3.40;;;;;;;;;;5034533;28;20224;-45
2022/09/28 04:16:42;;;;;;;3.53;2.97;;;;;;;;;;5034355;28;20208;-44
2022/09/28 04:19:08;;;;;;;3.40;3.10;;;;;;;;;;5034393;28;20201;-45
2022/09/28 04:21:34;;;;;;;3.50;3.20;;;;;;;;;;5034472;28;20193;-44
2022/09/28 04:24:00;;;;;;;4.80;3.10;;;;;;;;;;5034137;28;20552;-44
2022/09/28 04:26:27;;;;;;;3.63;3.20;;;;;;;;;;5034452;28;20204;-45
2022/09/28 04:31:40;;;;;;;4.50;4.10;;;;;;;;;;5034073;28;20231;-45
2022/09/28 04:34:06;;;;;;;3.83;3.53;;;;;;;;;;5032754;28;20197;-44
2022/09/28 04:36:33;;;;;;;3.63;3.07;;;;;;;;;;5034091;28;20251;-45
2022/09/28 04:38:59;;;;;;;3.90;3.60;;;;;;;;;;5033387;28;20193;-44
2022/09/28 04:41:25;;;;;;;4.13;3.30;;;;;;;;;;5034105;28;20204;-45
2022/09/28 04:43:51;;;;;;;3.67;3.37;;;;;;;;;;5033836;28;20694;-45
2022/09/28 04:46:18;;;;;;;3.60;3.30;;;;;;;;;;5033854;28;20437;-44
2022/09/28 04:48:45;;;;;;;4.30;3.53;;;;;;;;;;5033780;28;20624;-45
2022/09/28 04:51:11;;;;;;;3.57;3.27;;;;;;;;;;5033797;28;20205;-44
2022/09/28 04:53:37;;;;;;;5.50;3.53;;;;;;;;;;5033800;28;20207;-44
2022/09/28 04:56:04;;;;;;;3.80;3.40;;;;;;;;;;5033620;28;20706;-44
2022/09/28 04:58:30;;;;;;;3.70;3.40;;;;;;;;;;5033651;28;20248;-45
2022/09/28 05:00:57;;;;;;;3.80;3.40;;;;;;;;;;5033480;28;20215;-44
2022/09/28 05:03:23;;;;;;;3.60;3.30;;;;;;;;;;5033738;28;20201;-44
2022/09/28 05:05:51;;;;;;;3.80;3.50;;;;;;;;;;5033371;28;20201;-45
2022/09/28 05:08:17;;;;;;;3.50;3.20;;;;;;;;;;5033365;28;20316;-44
2022/09/28 05:10:43;;;;;;;3.90;3.60;;;;;;;;;;5033276;28;20200;-44
2022/09/28 05:13:09;;;;;;;4.07;3.67;;;;;;;;;;5033296;28;20197;-44
2022/09/28 05:15:36;;;;;;;4.13;3.63;;;;;;;;;;5033294;28;20248;-44
2022/09/28 05:18:02;;;;;;;3.77;3.47;;;;;;;;;;5032953;28;20808;-47
2022/09/28 05:20:28;;;;;;;3.73;3.33;;;;;;;;;;5033352;28;20201;-43
2022/09/28 05:22:56;;;;;;;3.77;3.20;;;;;;;;;;5033044;28;20189;-46
2022/09/28 05:25:22;;;;;;;4.53;3.77;;;;;;;;;;5033143;28;20204;-47
2022/09/28 05:27:48;;;;;;;5.33;3.37;;;;;;;;;;5033143;28;20208;-45
2022/09/28 05:30:14;;;;;;;3.80;3.40;;;;;;;;;;5032797;28;20558;-45
2022/09/28 05:32:40;;;;;;;3.73;3.43;;;;;;;;;;5032971;28;20669;-44
2022/09/28 05:35:06;;;;;;;4.00;3.70;;;;;;;;;;5032823;28;20284;-44
2022/09/28 05:37:33;;;;;;;4.57;3.67;;;;;;;;;;5033065;28;20204;-44
2022/09/28 05:40:00;;;;;;;3.93;3.63;;;;;;;;;;5033109;28;20204;-44
2022/09/28 05:42:26;;;;;;;4.40;4.00;;;;;;;;;;5033026;28;20616;-44
2022/09/28 05:44:52;;;;;;;4.40;4.00;;;;;;;;;;5032590;28;20249;-44
2022/09/28 05:47:18;;;;;;;4.80;3.93;;;;;;;;;;5032526;28;20207;-44
2022/09/28 05:49:44;;;;;;;4.43;4.03;;;;;;;;;;5031870;28;20252;-46
2022/09/28 05:52:10;;;;;;;5.00;4.50;;;;;;;;;;5032249;28;20251;-45
2022/09/28 05:54:36;;;;;;;4.73;4.30;;;;;;;;;;5032439;28;20663;-45
2022/09/28 05:57:06;;;;;;;4.97;4.50;;;;;;;;;;5031543;28;20229;-45
2022/09/28 05:59:33;;;;;;;4.63;4.23;;;;;;;;;;5043262;28;20199;-45
2022/09/28 06:02:00;;;;;;;5.40;4.40;;;;;;;;;;5070905;28;20261;-45
2022/09/28 06:04:26;;;;;;;5.83;4.67;;;;;;;;;;5069681;28;20593;-45
2022/09/28 06:06:52;;;;;;;4.87;4.47;;;;;;;;;;5072082;28;20613;-45
2022/09/28 06:09:18;;;;;;;4.93;4.50;;;;;;;;;;5071977;28;20223;-45
2022/09/28 06:11:44;;;;;;;5.30;4.80;;;;;;;;;;5072106;28;20207;-45
2022/09/28 06:14:12;;;;;;;4.10;3.80;;;;;;;;;;5071891;28;20290;-45
2022/09/28 06:16:38;;;;;;;4.87;4.40;;;;;;;;;;5071530;28;20230;-45
2022/09/28 06:19:04;;;;;;;5.33;4.80;;;;;;;;;;5071830;28;20558;-45
2022/09/28 06:21:30;;;;;;;4.87;4.47;;;;;;;;;;5071971;28;20282;-45
2022/09/28 06:23:56;;;;;;;4.97;4.50;;;;;;;;;;5071807;28;20203;-45
2022/09/28 06:26:22;;;;;;;5.17;4.67;;;;;;;;;;5071975;28;20195;-45
2022/09/28 06:28:48;;;;;;;5.20;4.70;;;;;;;;;;5071809;28;20610;-44
2022/09/28 06:31:16;;;;;;;5.80;5.20;;;;;;;;;;5071387;28;20286;-45
2022/09/28 06:33:42;;;;;;;5.33;4.90;;;;;;;;;;5070769;28;20866;-44
2022/09/28 06:36:09;;;;;;;4.20;3.80;;;;;;;;;;5071274;28;20203;-44
2022/09/28 06:38:35;;;;;;;5.50;4.30;;;;;;;;;;5071615;28;20192;-45
2022/09/28 06:41:01;;;;;;;5.10;4.60;;;;;;;;;;5070052;28;20207;-45
2022/09/28 06:43:28;;;;;;;4.43;4.10;;;;;;;;;;5070944;28;20202;-46
2022/09/28 06:45:54;;;;;;;3.90;3.60;;;;;;;;;;5071494;28;20623;-45
2022/09/28 06:48:21;;;;;;;4.27;3.60;;;;;;;;;;5071514;28;20748;-45
2022/09/28 06:50:49;;;;;;;3.83;3.40;;;;;;;;;;5071378;28;20196;-45
2022/09/28 06:53:15;;;;;;;4.10;3.80;;;;;;;;;;5071734;28;20195;-44
2022/09/28 06:55:42;;;;;;;5.10;4.00;;;;;;;;;;5071146;28;20195;-45
2022/09/28 06:58:09;;;;;;;4.60;4.20;;;;;;;;;;5071305;28;20199;-44
2022/09/28 07:00:36;;;;;;;4.57;4.10;;;;;;;;;;5071203;28;20670;-45
2022/09/28 07:03:03;;;;;;;4.00;3.70;;;;;;;;;;5070295;28;20211;-45
2022/09/28 07:05:33;;;;;;;4.20;3.80;;;;;;;;;;5071240;28;20195;-44
2022/09/28 07:08:00;;;;;;;4.50;3.77;;;;;;;;;;5071089;28;20219;-44
2022/09/28 07:10:27;;;;;;;3.87;3.57;;;;;;;;;;5071585;28;20203;-45
2022/09/28 07:12:54;;;;;;;3.97;3.67;;;;;;;;;;5071292;28;20200;-44
2022/09/28 07:15:20;;;;;;;4.90;3.47;;;;;;;;;;5071345;28;20199;-44
2022/09/28 07:17:46;;;;;;;6.10;3.57;;;;;;;;;;5071350;28;20199;-44
2022/09/28 07:20:13;;;;;;;3.60;3.30;;;;;;;;;;5071364;28;20590;-44
2022/09/28 07:22:41;;;;;;;4.70;3.37;;;;;;;;;;5070846;28;20283;-44
2022/09/28 07:25:07;;;;;;;3.80;3.50;;;;;;;;;;5071250;28;20246;-44
2022/09/28 07:27:35;;;;;;;3.60;3.30;;;;;;;;;;5071192;28;20637;-44
2022/09/28 07:30:01;;;;;;;3.50;3.20;;;;;;;;;;5070585;28;20227;-45
2022/09/28 07:32:28;;;;;;;3.43;3.13;;;;;;;;;;5070884;28;20231;-45
2022/09/28 07:34:55;;;;;;;3.37;3.07;;;;;;;;;;5071414;28;20223;-45
2022/09/28 07:37:23;;;;;;;2.90;2.70;;;;;;;;;;5070886;28;20627;-45
2022/09/28 07:42:35;;;;;;;2.87;2.67;;;;;;;;;;5070958;28;20238;-46
2022/09/28 07:45:02;;;;;;;4.07;2.60;;;;;;;;;;5071004;28;20192;-45
2022/09/28 07:47:28;;;;;;;2.87;2.67;;;;;;;;;;5070973;28;20203;-45
2022/09/28 07:49:55;;;;;;;2.97;2.77;;;;;;;;;;5070826;28;20231;-45
2022/09/28 07:52:23;;;;;;;2.87;2.67;;;;;;;;;;5071086;28;20275;-45
2022/09/28 07:54:52;;;;;;;2.90;2.70;;;;;;;;;;5070759;28;20246;-45
2022/09/28 07:57:18;;;;;;;2.47;2.27;;;;;;;;;;5071042;28;20260;-45
2022/09/28 07:59:44;;;;;;;2.40;2.20;;;;;;;;;;5071294;28;20224;-46
2022/09/28 08:02:10;;;;;;;2.47;2.30;;;;;;;;;;5070609;28;20227;-45
2022/09/28 08:04:36;;;;;;;2.63;2.43;;;;;;;;;;5070501;28;20286;-45
2022/09/28 08:07:02;;;;;;;2.83;2.53;;;;;;;;;;5068429;28;20203;-45
2022/09/28 08:09:28;;;;;;;2.93;2.70;;;;;;;;;;5068788;28;20223;-45
2022/09/28 08:11:58;;;;;;;3.20;2.90;;;;;;;;;;5070620;28;20199;-45
2022/09/28 08:14:25;;;;;;;3.23;2.93;;;;;;;;;;5072539;28;20278;-45
2022/09/28 08:16:52;;;;;;;2.77;2.57;;;;;;;;;;5074033;28;20215;-45
2022/09/28 08:19:18;;;;;;;2.70;2.50;;;;;;;;;;5074340;28;20207;-45
2022/09/28 08:21:44;;;;;;;2.47;2.27;;;;;;;;;;5073934;28;20198;-60
2022/09/28 08:24:10;;;;;;;2.50;2.30;;;;;;;;;;5074082;28;20192;-56
2022/09/28 08:26:36;;;;;;;4.63;4.13;;;;;;;;;;5072970;28;20218;-56
2022/09/28 08:29:03;;;;;;;8.93;8.13;;;;;;;;;;5060719;28;20648;-46
2022/09/28 08:31:30;;;;;;;2.40;2.20;;;;;;;;;;5053450;28;20752;-46
2022/09/28 08:33:56;;;;;;;2.10;1.90;;;;;;;;;;5053352;28;20211;-46
2022/09/28 08:36:22;;;;;;;2.20;2.00;;;;;;;;;;5053887;28;20773;-46
2022/09/28 08:38:48;;;;;;;18.33;16.53;;;;;;;;;;5053275;28;20203;-47
2022/09/28 08:41:18;;;;;;;2.23;2.03;;;;;;;;;;5053630;28;20204;-47
2022/09/28 08:44:00;;;;;;;1.67;1.57;;;;;;;;;;5053473;28;20295;-46
2022/09/28 08:46:29;;;;;;;1.80;1.70;;;;;;;;;;5053192;28;20290;-47
2022/09/28 08:48:58;;;;;;;1.80;1.70;;;;;;;;;;5052419;28;20239;-47
2022/09/28 08:51:28;;;;;;;2.27;2.07;;;;;;;;;;5052365;28;20201;-46
2022/09/28 08:53:56;;;;;;;10.50;9.50;;;;;;;;;;5052382;28;20200;-45
2022/09/28 08:56:27;;;;;;;1.90;1.80;;;;;;;;;;5053456;28;20192;-46
2022/09/28 08:58:56;;;;;;;1.60;1.50;;;;;;;;;;5052765;28;20204;-46
2022/09/28 09:01:23;;;;;;;2.00;1.80;;;;;;;;;;5052951;28;20258;-46
2022/09/28 09:03:51;;;;;;;1.97;1.87;;;;;;;;;;5053544;28;20208;-46
2022/09/28 09:06:21;;;;;;;2.67;2.00;;;;;;;;;;5053826;28;20197;-46
2022/09/28 09:08:56;;;;;;;2.33;2.00;;;;;;;;;;5053622;28;20796;-47
2022/09/28 09:11:29;;;;;;;1.73;1.63;;;;;;;;;;5053773;28;20275;-46
2022/09/28 09:14:13;;;;;;;2.07;1.90;;;;;;;;;;5053524;28;20749;-46
2022/09/28 09:16:44;;;;;;;2.07;1.97;;;;;;;;;;5053260;28;20204;-46
2022/09/28 09:19:16;;;;;;;2.30;2.10;;;;;;;;;;5053461;28;20648;-46
2022/09/28 09:21:46;;;;;;;2.10;2.00;;;;;;;;;;5053534;28;20215;-46
2022/09/28 09:24:18;;;;;;;2.27;2.07;;;;;;;;;;5053216;28;20219;-46
2022/09/28 09:26:45;;;;;;;2.10;2.00;;;;;;;;;;5053523;28;20252;-47
2022/09/28 09:29:18;;;;;;;2.10;1.83;;;;;;;;;;5054023;28;20224;-47
2022/09/28 09:31:50;;;;;;;2.13;2.03;;;;;;;;;;5053090;28;20246;-47
2022/09/28 09:34:31;;;;;;;8.67;7.87;;;;;;;;;;5053083;28;20208;-46
2022/09/28 09:37:21;;;;;;;9.63;8.73;;;;;;;;;;5049295;28;20234;-46
2022/09/28 09:39:56;;;;;;;2.70;2.50;;;;;;;;;;5029174;28;20197;-46
2022/09/28 09:42:30;;;;;;;3.40;2.90;;;;;;;;;;5052209;28;20306;-46
2022/09/28 09:45:02;;;;;;;2.97;2.77;;;;;;;;;;5052134;28;20196;-46
2022/09/28 09:47:30;;;;;;;2.47;2.27;;;;;;;;;;5052343;28;20200;-46
2022/09/28 09:50:01;;;;;;;2.30;2.10;;;;;;;;;;5052176;28;20323;-47
2022/09/28 09:52:29;;;;;;;2.90;2.70;;;;;;;;;;5052478;28;20216;-46
2022/09/28 09:54:59;;;;;;;2.50;2.30;;;;;;;;;;5052160;28;20249;-46
2022/09/28 09:57:26;;;;;;;2.50;2.30;;;;;;;;;;5052158;28;20668;-46
2022/09/28 09:59:52;;;;;;;2.03;1.93;;;;;;;;;;5051012;28;20204;-46
2022/09/28 10:02:21;;;;;;;2.30;2.10;;;;;;;;;;5051839;28;20258;-46
2022/09/28 10:04:48;;;;;;;2.63;2.33;;;;;;;;;;5051512;28;20630;-46
2022/09/28 10:07:18;;;;;;;2.50;2.30;;;;;;;;;;5050962;28;20214;-47
2022/09/28 10:09:46;;;;;;;2.83;2.60;;;;;;;;;;5051287;28;20231;-46
2022/09/28 10:12:15;;;;;;;3.03;2.73;;;;;;;;;;5051216;28;20204;-46
2022/09/28 10:14:41;;;;;;;2.93;2.73;;;;;;;;;;5051124;28;20196;-46
2022/09/28 10:17:10;;;;;;;3.63;3.33;;;;;;;;;;5050617;28;20192;-46
2022/09/28 10:19:36;;;;;;;5.47;4.97;;;;;;;;;;5051356;28;20551;-46
2022/09/28 10:22:03;;;;;;;3.77;3.47;;;;;;;;;;5051088;28;20204;-46
2022/09/28 10:24:30;;;;;;;3.07;2.80;;;;;;;;;;5051727;28;20196;-46
2022/09/28 10:26:59;;;;;;;3.27;2.50;;;;;;;;;;5051618;28;20200;-46
2022/09/28 10:29:29;;;;;;;3.10;2.80;;;;;;;;;;5051853;28;20220;-46
2022/09/28 10:31:55;;;;;;;2.90;2.70;;;;;;;;;;5051551;28;20239;-45
2022/09/28 10:34:25;;;;;;;2.90;2.70;;;;;;;;;;5051004;28;20683;-46
2022/09/28 10:36:54;;;;;;;2.60;2.40;;;;;;;;;;5051161;28;20286;-45
2022/09/28 10:39:27;;;;;;;2.83;2.63;;;;;;;;;;5051800;28;20196;-46
2022/09/28 10:41:53;;;;;;;2.90;2.70;;;;;;;;;;5051711;28;20225;-46
2022/09/28 10:44:20;;;;;;;2.97;2.77;;;;;;;;;;5049609;28;20204;-45
2022/09/28 10:46:55;;;;;;;2.97;2.77;;;;;;;;;;5050852;28;20202;-45
2022/09/28 10:49:22;;;;;;;3.30;3.00;;;;;;;;;;5048689;28;20235;-45
2022/09/28 10:51:48;;;;;;;2.80;2.60;;;;;;;;;;5048836;28;20211;-46
2022/09/28 10:54:15;;;;;;;3.10;2.80;;;;;;;;;;5050553;28;20199;-45
2022/09/28 10:56:42;;;;;;;3.00;2.70;;;;;;;;;;5050302;28;20591;-46
2022/09/28 10:59:22;;;;;;;2.93;2.70;;;;;;;;;;5050494;28;20211;-46
2022/09/28 11:01:52;;;;;;;2.67;2.47;;;;;;;;;;5050135;28;20703;-46
2022/09/28 11:04:21;;;;;;;2.80;2.60;;;;;;;;;;5048062;28;20196;-47
2022/09/28 11:06:48;;;;;;;2.77;2.40;;;;;;;;;;5050317;28;20207;-47
2022/09/28 11:09:23;;;;;;;2.90;2.70;;;;;;;;;;5050786;28;20223;-46
2022/09/28 11:11:49;;;;;;;2.70;2.50;;;;;;;;;;5050413;28;20242;-47
2022/09/28 11:14:23;;;;;;;3.30;3.00;;;;;;;;;;5050239;28;20775;-46
2022/09/28 11:17:09;;;;;;;3.47;3.10;;;;;;;;;;5049998;28;20226;-46
2022/09/28 11:19:37;;;;;;;3.20;2.90;;;;;;;;;;5050501;28;20286;-46
2022/09/28 11:22:19;;;;;;;2.80;2.60;;;;;;;;;;5048746;28;20214;-46
2022/09/28 11:24:45;;;;;;;2.63;2.43;;;;;;;;;;5051065;28;20180;-46
2022/09/28 11:27:19;;;;;;;3.63;2.90;;;;;;;;;;5051035;28;20188;-47
2022/09/28 11:29:51;;;;;;;2.83;2.63;;;;;;;;;;5050572;28;20224;-47
2022/09/28 11:32:17;;;;;;;2.60;2.40;;;;;;;;;;5050252;28;20228;-46
2022/09/28 11:34:45;;;;;;;3.87;2.77;;;;;;;;;;5048112;28;20206;-45
2022/09/28 11:37:26;;;;;;;2.50;2.30;;;;;;;;;;5048288;28;20550;-45
2022/09/28 11:39:55;;;;;;;2.40;2.20;;;;;;;;;;5050314;28;20228;-45
2022/09/28 11:42:28;;;;;;;2.53;2.33;;;;;;;;;;5044732;28;20211;-45
2022/09/28 11:44:58;;;;;;;2.70;2.50;;;;;;;;;;5050039;28;20200;-46
2022/09/28 11:47:32;;;;;;;2.73;2.53;;;;;;;;;;5050434;28;20204;-45
2022/09/28 11:50:02;;;;;;;2.80;2.60;;;;;;;;;;5053444;28;20591;-46
2022/09/28 11:52:30;;;;;;;3.33;2.73;;;;;;;;;;5050378;28;20204;-46
2022/09/28 11:54:58;;;;;;;2.73;2.53;;;;;;;;;;5052948;28;20231;-45
2022/09/28 11:57:26;;;;;;;3.53;3.30;;;;;;;;;;5054080;28;20209;-45
2022/09/28 11:59:56;;;;;;;2.53;2.33;;;;;;;;;;5053618;28;20214;-46
2022/09/28 12:02:24;;;;;;;3.17;2.77;;;;;;;;;;5052277;28;20263;-45
2022/09/28 12:04:52;;;;;;;2.50;2.30;;;;;;;;;;5052134;28;20255;-45
2022/09/28 12:07:23;;;;;;;2.77;2.40;;;;;;;;;;5054027;28;20208;-46
2022/09/28 12:09:52;;;;;;;2.30;2.10;;;;;;;;;;5054020;28;20223;-46
2022/09/28 12:12:21;;;;;;;2.90;2.70;;;;;;;;;;5053927;28;20200;-46
2022/09/28 12:14:47;;;;;;;4.30;2.83;;;;;;;;;;5052288;28;20192;-46
2022/09/28 12:17:18;;;;;;;4.17;3.30;;;;;;;;;;5053737;28;20251;-46
2022/09/28 12:19:48;;;;;;;3.60;3.30;;;;;;;;;;5054031;28;20243;-46
2022/09/28 12:22:17;;;;;;;4.30;3.90;;;;;;;;;;5053431;28;20815;-46
2022/09/28 12:24:46;;;;;;;3.90;3.50;;;;;;;;;;5053778;28;20196;-45
2022/09/28 12:27:14;;;;;;;3.70;3.40;;;;;;;;;;5053623;28;20633;-46
2022/09/28 12:29:42;;;;;;;3.70;3.40;;;;;;;;;;5052022;28;20438;-46
2022/09/28 12:32:11;;;;;;;19.70;17.90;;;;;;;;;;5052501;28;20277;-46
2022/09/28 12:34:37;;;;;;;9.57;8.67;;;;;;;;;;5053159;28;20200;-46
2022/09/28 12:37:08;;;;;;;4.00;3.70;;;;;;;;;;5053120;28;20235;-46
2022/09/28 12:39:42;;;;;;;3.33;3.13;;;;;;;;;;5049803;28;20275;-46
2022/09/28 12:42:17;;;;;;;3.07;2.87;;;;;;;;;;5053551;28;20196;-46
2022/09/28 12:44:49;;;;;;;2.90;2.70;;;;;;;;;;5053415;28;20239;-45
2022/09/28 12:47:26;;;;;;;3.20;3.00;;;;;;;;;;5049410;28;20192;-45
2022/09/28 12:49:57;;;;;;;3.10;2.90;;;;;;;;;;5050656;28;20239;-46
2022/09/28 12:52:27;;;;;;;2.77;2.57;;;;;;;;;;5047465;28;20208;-45
2022/09/28 12:55:03;;;;;;;2.50;2.30;;;;;;;;;;5052811;28;20685;-45
2022/09/28 12:57:35;;;;;;;2.40;2.20;;;;;;;;;;5049355;28;20239;-46
2022/09/28 13:00:03;;;;;;;2.10;2.00;;;;;;;;;;5052834;28;20200;-45
2022/09/28 13:02:40;;;;;;;13.43;12.13;;;;;;;;;;5050982;28;20679;-45
2022/09/28 13:05:14;;;;;;;2.07;1.97;;;;;;;;;;5051131;28;20192;-45
2022/09/28 13:07:48;;;;;;;2.00;1.90;;;;;;;;;;5052695;28;20211;-46
2022/09/28 13:10:18;;;;;;;1.70;1.60;;;;;;;;;;5047188;28;20689;-46
2022/09/28 13:12:53;;;;;;;2.10;2.00;;;;;;;;;;5052873;28;20196;-45
2022/09/28 13:15:41;;;;;;;2.10;1.33;;;;;;;;;;5052577;28;20290;-45
2022/09/28 13:18:11;;;;;;;1.50;1.40;;;;;;;;;;5053002;28;20207;-45
2022/09/28 13:20:39;;;;;;;1.30;1.23;;;;;;;;;;5052923;28;20196;-45
2022/09/28 13:23:11;;;;;;;6.67;6.10;;;;;;;;;;5052631;28;20231;-45
2022/09/28 13:25:39;;;;;;;1.40;1.30;;;;;;;;;;5050157;28;20207;-45
2022/09/28 13:28:07;;;;;;;1.40;1.10;;;;;;;;;;5050471;28;20211;-45
2022/09/28 13:30:34;;;;;;;1.20;1.10;;;;;;;;;;5050069;28;20689;-45
2022/09/28 13:33:01;;;;;;;1.73;1.63;;;;;;;;;;5050015;28;20243;-46
2022/09/28 13:35:27;;;;;;;3.23;3.00;;;;;;;;;;5050905;28;20207;-47
2022/09/28 13:38:13;;;;;;;1.40;1.30;;;;;;;;;;5052338;28;20211;-45
2022/09/28 13:40:54;;;;;;;2.90;2.70;;;;;;;;;;5051957;28;20206;-45
2022/09/28 13:43:27;;;;;;;7.40;6.80;;;;;;;;;;5048945;28;20204;-45
2022/09/28 13:45:55;;;;;;;3.33;3.13;;;;;;;;;;5051872;28;20713;-46
2022/09/28 13:48:22;;;;;;;2.37;2.27;;;;;;;;;;5051357;28;20212;-44
2022/09/28 13:50:57;;;;;;;3.90;3.60;;;;;;;;;;5051264;28;20524;-45
2022/09/28 13:53:28;;;;;;;8.07;7.37;;;;;;;;;;5050250;28;20217;-44
2022/09/28 13:55:56;;;;;;;8.70;8.00;;;;;;;;;;5048313;28;20203;-46
2022/09/28 13:58:25;;;;;;;6.77;6.27;;;;;;;;;;5051169;28;20630;-46
2022/09/28 14:00:53;;;;;;;3.60;3.30;;;;;;;;;;5051785;28;20601;-46
2022/09/28 14:03:26;;;;;;;3.20;3.00;;;;;;;;;;5050085;28;20613;-46
2022/09/28 14:06:03;;;;;;;4.03;3.57;;;;;;;;;;5049994;28;20211;-45
2022/09/28 14:08:33;;;;;;;2.67;2.47;;;;;;;;;;5049233;28;20216;-47
2022/09/28 14:11:13;;;;;;;2.87;2.67;;;;;;;;;;5051067;28;20212;-46
2022/09/28 14:14:00;;;;;;;2.50;2.30;;;;;;;;;;5049072;28;20199;-46
2022/09/28 14:16:27;;;;;;;2.50;2.30;;;;;;;;;;5049737;28;20631;-46
2022/09/28 14:18:56;;;;;;;2.30;2.10;;;;;;;;;;5051374;28;20211;-46
2022/09/28 14:21:46;;;;;;;2.50;2.30;;;;;;;;;;5050208;28;20207;-46
2022/09/28 14:24:18;;;;;;;2.80;2.60;;;;;;;;;;5034653;28;20251;-46
2022/09/28 14:26:57;;;;;;;2.00;1.90;;;;;;;;;;5049834;28;20227;-46
2022/09/28 14:29:27;;;;;;;2.50;2.30;;;;;;;;;;5048540;28;20215;-45
2022/09/28 14:31:54;;;;;;;14.27;13.07;;;;;;;;;;5051036;28;20642;-45
2022/09/28 14:34:37;;;;;;;3.27;3.07;;;;;;;;;;5050492;28;20566;-46
2022/09/28 14:43:07;;;;;;;2.83;2.63;;;;;;;;;;5051251;28;20286;-45
2022/09/28 14:45:37;;;;;;;2.43;1.90;;;;;;;;;;5050191;28;20662;-50
2022/09/28 14:48:04;;;;;;;2.73;2.53;;;;;;;;;;5051309;28;20204;-45
2022/09/28 14:50:30;;;;;;;2.87;2.53;;;;;;;;;;5050724;28;20226;-46
2022/09/28 14:53:03;;;;;;;2.67;2.30;;;;;;;;;;5051060;28;20200;-47
2022/09/28 14:55:31;;;;;;;3.77;3.27;;;;;;;;;;5051040;28;20291;-45
2022/09/28 14:57:58;;;;;;;3.50;2.97;;;;;;;;;;5051115;28;20670;-45
2022/09/28 15:00:25;;;;;;;2.50;2.30;;;;;;;;;;5051003;28;20215;-45
2022/09/28 15:02:55;;;;;;;2.73;2.53;;;;;;;;;;5051318;28;20242;-45
2022/09/28 15:05:23;;;;;;;4.87;2.70;;;;;;;;;;5050385;28;20207;-46